sensor_id;sensor_type;location;lat;lon;timestamp;pressure;altitude;pressure_sealevel;temperature;humidity
77737;BME280;66903;59.926;30.404;2023-10-31T00:02:04;100770.06;;;27.43;24.34
77737;BME280;66903;59.926;30.404;2023-10-31T00:07:15;100764.00;;;27.45;24.01
77737;BME280;66903;59.926;30.404;2023-10-31T00:12:26;100758.25;;;27.45;24.21
77737;BME280;66903;59.926;30.404;2023-10-31T00:17:37;100758.25;;;27.45;24.27
77737;BME280;66903;59.926;30.404;2023-10-31T00:22:47;100759.94;;;27.46;24.21
77737;BME280;66903;59.926;30.404;2023-10-31T00:27:58;100778.00;;;27.46;24.18
77737;BME280;66903;59.926;30.404;2023-10-31T00:33:09;100794.38;;;27.46;24.25
77737;BME280;66903;59.926;30.404;2023-10-31T00:38:19;100817.84;;;27.48;24.53
77737;BME280;66903;59.926;30.404;2023-10-31T00:43:30;100805.56;;;27.47;23.89
77737;BME280;66903;59.926;30.404;2023-10-31T00:48:41;100818.72;;;27.48;24.09
77737;BME280;66903;59.926;30.404;2023-10-31T00:53:51;100805.22;;;27.49;24.14
77737;BME280;66903;59.926;30.404;2023-10-31T00:59:02;100799.47;;;27.49;23.95
77737;BME280;66903;59.926;30.404;2023-10-31T01:04:13;100816.69;;;27.49;24.09
77737;BME280;66903;59.926;30.404;2023-10-31T01:09:24;100805.22;;;27.49;23.89
77737;BME280;66903;59.926;30.404;2023-10-31T01:14:35;100793.75;;;27.49;24.40
77737;BME280;66903;59.926;30.404;2023-10-31T01:19:45;100801.16;;;27.50;24.05
77737;BME280;66903;59.926;30.404;2023-10-31T01:24:56;100801.16;;;27.50;24.21
77737;BME280;66903;59.926;30.404;2023-10-31T01:30:07;100822.97;;;27.51;24.11
77737;BME280;66903;59.926;30.404;2023-10-31T01:35:18;100812.97;;;27.48;23.93
77737;BME280;66903;59.926;30.404;2023-10-31T01:40:29;100811.78;;;27.49;24.02
77737;BME280;66903;59.926;30.404;2023-10-31T01:45:40;100811.50;;;27.51;24.40
77737;BME280;66903;59.926;30.404;2023-10-31T01:50:51;100785.97;;;27.49;24.49
77737;BME280;66903;59.926;30.404;2023-10-31T01:56:03;100802.03;;;27.50;24.44
77737;BME280;66903;59.926;30.404;2023-10-31T02:01:14;100773.31;;;27.50;23.92
77737;BME280;66903;59.926;30.404;2023-10-31T02:06:25;100740.91;;;27.50;24.15
77737;BME280;66903;59.926;30.404;2023-10-31T02:11:37;100751.53;;;27.49;24.24
77737;BME280;66903;59.926;30.404;2023-10-31T02:16:48;100776.53;;;27.49;24.06
77737;BME280;66903;59.926;30.404;2023-10-31T02:21:58;100783.94;;;27.50;24.29
77737;BME280;66903;59.926;30.404;2023-10-31T02:27:10;100800.31;;;27.49;23.96
77737;BME280;66903;59.926;30.404;2023-10-31T02:32:20;100808.91;;;27.49;23.83
77737;BME280;66903;59.926;30.404;2023-10-31T02:37:31;100808.09;;;27.49;23.79
77737;BME280;66903;59.926;30.404;2023-10-31T02:42:42;100802.69;;;27.47;24.05
77737;BME280;66903;59.926;30.404;2023-10-31T02:47:53;100812.13;;;27.48;24.34
77737;BME280;66903;59.926;30.404;2023-10-31T02:53:04;100834.25;;;27.47;23.77
77737;BME280;66903;59.926;30.404;2023-10-31T02:58:14;100840.00;;;27.47;23.76
77737;BME280;66903;59.926;30.404;2023-10-31T03:03:27;100863.25;;;27.46;24.09
77737;BME280;66903;59.926;30.404;2023-10-31T03:08:38;100883.66;;;27.44;24.02
77737;BME280;66903;59.926;30.404;2023-10-31T03:13:49;100882.81;;;27.44;24.34
77737;BME280;66903;59.926;30.404;2023-10-31T03:19:00;100888.91;;;27.42;23.99
77737;BME280;66903;59.926;30.404;2023-10-31T03:24:11;100886.31;;;27.41;23.86
77737;BME280;66903;59.926;30.404;2023-10-31T03:29:22;100891.25;;;27.40;23.88
77737;BME280;66903;59.926;30.404;2023-10-31T03:34:32;100882.63;;;27.40;23.95
77737;BME280;66903;59.926;30.404;2023-10-31T03:39:43;100875.50;;;27.38;24.09
77737;BME280;66903;59.926;30.404;2023-10-31T03:44:54;100876.38;;;27.38;23.96
77737;BME280;66903;59.926;30.404;2023-10-31T03:50:05;100871.78;;;27.37;24.07
77737;BME280;66903;59.926;30.404;2023-10-31T03:55:16;100865.22;;;27.37;23.89
77737;BME280;66903;59.926;30.404;2023-10-31T04:00:27;100877.03;;;27.35;23.93
77737;BME280;66903;59.926;30.404;2023-10-31T04:05:37;100874.44;;;27.34;24.14
77737;BME280;66903;59.926;30.404;2023-10-31T04:10:48;100856.75;;;27.32;24.28
77737;BME280;66903;59.926;30.404;2023-10-31T04:15:59;100867.34;;;27.31;24.02
77737;BME280;66903;59.926;30.404;2023-10-31T04:21:10;100863.94;;;27.29;24.29
77737;BME280;66903;59.926;30.404;2023-10-31T04:26:20;100873.44;;;27.30;24.09
77737;BME280;66903;59.926;30.404;2023-10-31T04:31:31;100875.41;;;27.29;23.81
77737;BME280;66903;59.926;30.404;2023-10-31T04:36:42;100883.16;;;27.28;24.00
77737;BME280;66903;59.926;30.404;2023-10-31T04:41:53;100891.22;;;27.26;24.38
77737;BME280;66903;59.926;30.404;2023-10-31T04:47:04;100892.41;;;27.25;24.36
77737;BME280;66903;59.926;30.404;2023-10-31T04:52:15;100902.19;;;27.24;24.02
77737;BME280;66903;59.926;30.404;2023-10-31T04:57:26;100898.81;;;27.22;24.38
77737;BME280;66903;59.926;30.404;2023-10-31T05:02:37;100882.75;;;27.21;23.81
77737;BME280;66903;59.926;30.404;2023-10-31T05:07:48;100891.34;;;27.21;24.08
77737;BME280;66903;59.926;30.404;2023-10-31T05:13:00;100895.06;;;27.22;23.88
77737;BME280;66903;59.926;30.404;2023-10-31T05:18:12;100890.81;;;27.19;23.97
77737;BME280;66903;59.926;30.404;2023-10-31T05:23:23;100890.81;;;27.19;23.86
77737;BME280;66903;59.926;30.404;2023-10-31T05:28:34;100892.88;;;27.19;23.75
77737;BME280;66903;59.926;30.404;2023-10-31T05:33:45;100915.81;;;27.19;23.75
77737;BME280;66903;59.926;30.404;2023-10-31T05:38:56;100939.59;;;27.19;23.90
77737;BME280;66903;59.926;30.404;2023-10-31T05:44:06;100944.81;;;27.17;23.77
77737;BME280;66903;59.926;30.404;2023-10-31T05:49:18;100955.44;;;27.17;23.95
77737;BME280;66903;59.926;30.404;2023-10-31T05:54:29;100954.91;;;27.15;23.91
77737;BME280;66903;59.926;30.404;2023-10-31T05:59:40;100965.50;;;27.14;23.77
77737;BME280;66903;59.926;30.404;2023-10-31T06:04:51;100973.78;;;27.16;24.18
77737;BME280;66903;59.926;30.404;2023-10-31T06:10:02;100978.38;;;27.17;23.92
77737;BME280;66903;59.926;30.404;2023-10-31T06:15:14;100985.47;;;27.19;24.19
77737;BME280;66903;59.926;30.404;2023-10-31T06:20:26;100968.78;;;27.21;23.62
77737;BME280;66903;59.926;30.404;2023-10-31T06:25:37;100957.84;;;27.23;23.92
77737;BME280;66903;59.926;30.404;2023-10-31T06:30:47;100955.53;;;27.25;23.71
77737;BME280;66903;59.926;30.404;2023-10-31T06:35:58;100976.13;;;27.27;23.81
77737;BME280;66903;59.926;30.404;2023-10-31T06:41:09;100946.59;;;27.27;23.29
77737;BME280;66903;59.926;30.404;2023-10-31T06:46:20;100931.91;;;27.28;23.72
77737;BME280;66903;59.926;30.404;2023-10-31T06:51:30;100932.78;;;27.29;23.58
77737;BME280;66903;59.926;30.404;2023-10-31T06:56:41;100939.41;;;27.30;24.00
77737;BME280;66903;59.926;30.404;2023-10-31T07:01:52;100931.09;;;27.28;23.85
77737;BME280;66903;59.926;30.404;2023-10-31T07:07:03;100927.38;;;27.27;23.52
77737;BME280;66903;59.926;30.404;2023-10-31T07:12:15;100910.72;;;27.30;23.59
77737;BME280;66903;59.926;30.404;2023-10-31T07:17:26;100893.50;;;27.30;23.82
77737;BME280;66903;59.926;30.404;2023-10-31T07:22:37;100892.00;;;27.32;23.77
77737;BME280;66903;59.926;30.404;2023-10-31T07:27:48;100885.63;;;27.35;23.48
77737;BME280;66903;59.926;30.404;2023-10-31T07:32:58;100886.78;;;27.34;23.51
77737;BME280;66903;59.926;30.404;2023-10-31T07:38:09;100912.59;;;27.34;23.53
77737;BME280;66903;59.926;30.404;2023-10-31T07:43:20;100898.59;;;27.33;23.95
77737;BME280;66903;59.926;30.404;2023-10-31T07:48:31;100888.59;;;27.30;23.83
77737;BME280;66903;59.926;30.404;2023-10-31T07:53:42;100878.50;;;27.33;23.67
77737;BME280;66903;59.926;30.404;2023-10-31T07:58:53;100858.28;;;27.38;23.98
77737;BME280;66903;59.926;30.404;2023-10-31T08:04:05;100890.78;;;27.47;23.24
77737;BME280;66903;59.926;30.404;2023-10-31T08:09:16;100890.13;;;27.50;23.67
77737;BME280;66903;59.926;30.404;2023-10-31T08:14:27;100900.13;;;27.52;23.71
77737;BME280;66903;59.926;30.404;2023-10-31T08:19:37;100901.25;;;27.51;23.59
77737;BME280;66903;59.926;30.404;2023-10-31T08:24:48;100911.06;;;27.50;23.72
77737;BME280;66903;59.926;30.404;2023-10-31T08:29:59;100912.03;;;27.46;23.38
77737;BME280;66903;59.926;30.404;2023-10-31T08:35:10;100918.94;;;27.45;23.37
77737;BME280;66903;59.926;30.404;2023-10-31T08:40:20;100913.13;;;27.36;23.78
77737;BME280;66903;59.926;30.404;2023-10-31T08:45:31;100918.13;;;27.31;23.47
77737;BME280;66903;59.926;30.404;2023-10-31T08:50:42;100918.56;;;27.24;23.44
77737;BME280;66903;59.926;30.404;2023-10-31T08:55:53;100933.34;;;27.17;23.66
77737;BME280;66903;59.926;30.404;2023-10-31T09:01:04;100913.34;;;27.12;23.84
77737;BME280;66903;59.926;30.404;2023-10-31T09:06:14;100916.56;;;27.11;23.76
77737;BME280;66903;59.926;30.404;2023-10-31T09:11:25;100916.22;;;27.12;24.13
77737;BME280;66903;59.926;30.404;2023-10-31T09:16:36;100908.69;;;27.16;23.89
77737;BME280;66903;59.926;30.404;2023-10-31T09:21:47;100886.28;;;27.18;23.73
77737;BME280;66903;59.926;30.404;2023-10-31T09:26:57;100880.94;;;27.25;23.75
77737;BME280;66903;59.926;30.404;2023-10-31T09:32:08;100888.88;;;27.28;23.60
77737;BME280;66903;59.926;30.404;2023-10-31T09:37:19;100882.03;;;27.30;23.61
77737;BME280;66903;59.926;30.404;2023-10-31T09:42:30;100885.72;;;27.30;23.37
77737;BME280;66903;59.926;30.404;2023-10-31T09:47:41;100884.25;;;27.33;23.60
77737;BME280;66903;59.926;30.404;2023-10-31T09:52:53;100875.63;;;27.33;23.60
77737;BME280;66903;59.926;30.404;2023-10-31T09:58:05;100861.28;;;27.33;23.57
77737;BME280;66903;59.926;30.404;2023-10-31T10:03:16;100862.69;;;27.35;23.92
77737;BME280;66903;59.926;30.404;2023-10-31T10:08:27;100843.41;;;27.36;23.48
77737;BME280;66903;59.926;30.404;2023-10-31T10:13:38;100848.00;;;27.37;23.68
77737;BME280;66903;59.926;30.404;2023-10-31T10:18:50;100836.53;;;27.37;23.72
77737;BME280;66903;59.926;30.404;2023-10-31T10:24:00;100847.16;;;27.36;23.75
77737;BME280;66903;59.926;30.404;2023-10-31T10:29:12;100841.94;;;27.38;23.59
77737;BME280;66903;59.926;30.404;2023-10-31T10:34:24;100850.22;;;27.40;23.46
77737;BME280;66903;59.926;30.404;2023-10-31T10:39:36;100829.28;;;27.39;23.42
77737;BME280;66903;59.926;30.404;2023-10-31T10:44:49;100835.00;;;27.39;23.42
77737;BME280;66903;59.926;30.404;2023-10-31T10:50:02;100830.47;;;27.38;23.93
77737;BME280;66903;59.926;30.404;2023-10-31T10:55:20;100837.53;;;27.41;23.71
77737;BME280;66903;59.926;30.404;2023-10-31T11:00:33;100821.53;;;27.40;23.51
77737;BME280;66903;59.926;30.404;2023-10-31T11:05:45;100830.13;;;27.40;23.80
77737;BME280;66903;59.926;30.404;2023-10-31T11:10:57;100818.66;;;27.40;23.26
77737;BME280;66903;59.926;30.404;2023-10-31T11:16:13;100817.16;;;27.42;23.95
77737;BME280;66903;59.926;30.404;2023-10-31T11:21:29;100815.13;;;27.43;23.99
77737;BME280;66903;59.926;30.404;2023-10-31T11:26:50;100799.63;;;27.44;24.00
77737;BME280;66903;59.926;30.404;2023-10-31T11:32:01;100791.66;;;27.41;23.81
77737;BME280;66903;59.926;30.404;2023-10-31T11:37:27;100797.56;;;27.44;23.66
77737;BME280;66903;59.926;30.404;2023-10-31T11:42:42;100765.34;;;27.39;23.51
77737;BME280;66903;59.926;30.404;2023-10-31T11:47:52;100772.56;;;27.36;23.84
77737;BME280;66903;59.926;30.404;2023-10-31T11:53:06;100776.28;;;27.37;23.58
77737;BME280;66903;59.926;30.404;2023-10-31T12:03:37;100780.31;;;27.36;23.64
77737;BME280;66903;59.926;30.404;2023-10-31T12:08:49;100774.38;;;27.32;23.95
77737;BME280;66903;59.926;30.404;2023-10-31T12:14:02;100774.38;;;27.32;23.66
77737;BME280;66903;59.926;30.404;2023-10-31T12:19:15;100770.16;;;27.30;23.86
77737;BME280;66903;59.926;30.404;2023-10-31T12:24:26;100760.66;;;27.29;23.66
77737;BME280;66903;59.926;30.404;2023-10-31T12:29:37;100749.84;;;27.26;23.98
77737;BME280;66903;59.926;30.404;2023-10-31T12:34:47;100754.41;;;27.27;23.87
77737;BME280;66903;59.926;30.404;2023-10-31T12:40:00;100749.00;;;27.25;23.85
77737;BME280;66903;59.926;30.404;2023-10-31T12:45:15;100750.19;;;27.24;23.79
77737;BME280;66903;59.926;30.404;2023-10-31T12:50:27;100743.91;;;27.22;23.70
77737;BME280;66903;59.926;30.404;2023-10-31T12:55:40;100736.13;;;27.23;23.47
77737;BME280;66903;59.926;30.404;2023-10-31T13:00:51;100734.47;;;27.22;23.80
77737;BME280;66903;59.926;30.404;2023-10-31T13:06:13;100744.91;;;27.40;23.76
77737;BME280;66903;59.926;30.404;2023-10-31T13:11:24;100721.50;;;27.24;23.66
77737;BME280;66903;59.926;30.404;2023-10-31T13:16:39;100713.53;;;27.21;24.15
77737;BME280;66903;59.926;30.404;2023-10-31T13:21:50;100708.97;;;27.20;24.19
77737;BME280;66903;59.926;30.404;2023-10-31T13:27:01;100691.25;;;27.18;24.15
77737;BME280;66903;59.926;30.404;2023-10-31T13:32:13;100670.84;;;27.20;23.87
77737;BME280;66903;59.926;30.404;2023-10-31T13:37:24;100666.81;;;27.21;23.92
77737;BME280;66903;59.926;30.404;2023-10-31T13:42:36;100662.41;;;27.23;23.94
77737;BME280;66903;59.926;30.404;2023-10-31T13:47:46;100660.41;;;27.24;24.11
77737;BME280;66903;59.926;30.404;2023-10-31T13:52:57;100658.06;;;27.26;24.00
77737;BME280;66903;59.926;30.404;2023-10-31T13:58:08;100647.41;;;27.26;23.71
77737;BME280;66903;59.926;30.404;2023-10-31T14:03:19;100632.78;;;27.28;23.75
77737;BME280;66903;59.926;30.404;2023-10-31T14:08:30;100612.38;;;27.30;23.93
77737;BME280;66903;59.926;30.404;2023-10-31T14:13:41;100613.22;;;27.30;24.20
77737;BME280;66903;59.926;30.404;2023-10-31T14:18:54;100625.53;;;27.31;23.95
77737;BME280;66903;59.926;30.404;2023-10-31T14:24:06;100618.94;;;27.30;23.83
77737;BME280;66903;59.926;30.404;2023-10-31T14:29:20;100617.78;;;27.31;24.02
77737;BME280;66903;59.926;30.404;2023-10-31T14:34:31;100616.94;;;27.31;23.83
77737;BME280;66903;59.926;30.404;2023-10-31T14:39:42;100600.91;;;27.30;23.64
77737;BME280;66903;59.926;30.404;2023-10-31T14:44:53;100578.78;;;27.30;23.87
77737;BME280;66903;59.926;30.404;2023-10-31T14:50:07;100556.69;;;27.31;24.15
77737;BME280;66903;59.926;30.404;2023-10-31T14:55:18;100555.53;;;27.32;24.15
77737;BME280;66903;59.926;30.404;2023-10-31T15:00:29;100535.47;;;27.32;23.84
77737;BME280;66903;59.926;30.404;2023-10-31T15:05:40;100524.00;;;27.32;24.33
77737;BME280;66903;59.926;30.404;2023-10-31T15:10:52;100509.31;;;27.33;23.94
77737;BME280;66903;59.926;30.404;2023-10-31T15:16:03;100496.97;;;27.33;24.00
77737;BME280;66903;59.926;30.404;2023-10-31T15:21:14;100491.25;;;27.33;24.15
77737;BME280;66903;59.926;30.404;2023-10-31T15:26:25;100476.56;;;27.34;23.83
77737;BME280;66903;59.926;30.404;2023-10-31T15:31:42;100473.00;;;27.37;23.92
77737;BME280;66903;59.926;30.404;2023-10-31T15:36:54;100459.88;;;27.36;24.00
77737;BME280;66903;59.926;30.404;2023-10-31T15:42:04;100450.91;;;27.38;23.99
77737;BME280;66903;59.926;30.404;2023-10-31T15:47:16;100440.31;;;27.38;23.73
77737;BME280;66903;59.926;30.404;2023-10-31T15:52:27;100429.69;;;27.39;24.17
77737;BME280;66903;59.926;30.404;2023-10-31T15:57:38;100419.88;;;27.40;24.29
77737;BME280;66903;59.926;30.404;2023-10-31T16:02:49;100412.13;;;27.40;23.81
77737;BME280;66903;59.926;30.404;2023-10-31T16:08:00;100415.81;;;27.41;24.25
77737;BME280;66903;59.926;30.404;2023-10-31T16:13:10;100402.66;;;27.40;23.83
77737;BME280;66903;59.926;30.404;2023-10-31T16:18:21;100404.03;;;27.42;24.19
77737;BME280;66903;59.926;30.404;2023-10-31T16:23:33;100406.56;;;27.44;24.50
77737;BME280;66903;59.926;30.404;2023-10-31T16:28:44;100394.22;;;27.43;24.00
77737;BME280;66903;59.926;30.404;2023-10-31T16:33:59;100391.03;;;27.45;23.91
77737;BME280;66903;59.926;30.404;2023-10-31T16:39:10;100387.28;;;27.44;24.17
77737;BME280;66903;59.926;30.404;2023-10-31T16:44:21;100376.69;;;27.45;24.01
77737;BME280;66903;59.926;30.404;2023-10-31T16:49:32;100373.47;;;27.46;24.06
77737;BME280;66903;59.926;30.404;2023-10-31T16:54:43;100354.56;;;27.45;24.37
77737;BME280;66903;59.926;30.404;2023-10-31T16:59:54;100328.25;;;27.43;24.00
77737;BME280;66903;59.926;30.404;2023-10-31T17:05:04;100314.41;;;27.45;24.36
77737;BME280;66903;59.926;30.404;2023-10-31T17:10:15;100288.59;;;27.45;24.08
77737;BME280;66903;59.926;30.404;2023-10-31T17:15:26;100251.81;;;27.47;23.97
77737;BME280;66903;59.926;30.404;2023-10-31T17:20:37;100231.72;;;27.47;24.04
77737;BME280;66903;59.926;30.404;2023-10-31T17:25:48;100231.72;;;27.47;24.10
77737;BME280;66903;59.926;30.404;2023-10-31T17:30:59;100231.72;;;27.47;23.97
77737;BME280;66903;59.926;30.404;2023-10-31T17:36:10;100232.53;;;27.48;24.54
77737;BME280;66903;59.926;30.404;2023-10-31T17:41:21;100234.59;;;27.47;24.66
77737;BME280;66903;59.926;30.404;2023-10-31T17:46:32;100219.91;;;27.49;24.12
77737;BME280;66903;59.926;30.404;2023-10-31T17:51:43;100210.94;;;27.50;24.59
77737;BME280;66903;59.926;30.404;2023-10-31T17:56:54;100165.91;;;27.51;24.48
77737;BME280;66903;59.926;30.404;2023-10-31T18:02:05;100154.41;;;27.51;24.16
77737;BME280;66903;59.926;30.404;2023-10-31T18:07:15;100152.03;;;27.53;24.21
77737;BME280;66903;59.926;30.404;2023-10-31T18:12:26;100100.38;;;27.53;24.73
77737;BME280;66903;59.926;30.404;2023-10-31T18:17:37;100070.00;;;27.52;24.76
77737;BME280;66903;59.926;30.404;2023-10-31T18:22:48;100063.94;;;27.53;24.32
77737;BME280;66903;59.926;30.404;2023-10-31T18:27:59;100041.81;;;27.54;24.73
77737;BME280;66903;59.926;30.404;2023-10-31T18:33:10;100039.81;;;27.54;24.54
77737;BME280;66903;59.926;30.404;2023-10-31T18:38:21;100018.53;;;27.55;24.83
77737;BME280;66903;59.926;30.404;2023-10-31T18:43:32;100008.72;;;27.56;24.63
77737;BME280;66903;59.926;30.404;2023-10-31T18:48:42;99966.53;;;27.57;24.49
77737;BME280;66903;59.926;30.404;2023-10-31T18:53:54;99996.06;;;27.57;24.58
77737;BME280;66903;59.926;30.404;2023-10-31T18:59:05;99987.47;;;27.57;24.63
77737;BME280;66903;59.926;30.404;2023-10-31T19:04:16;99973.63;;;27.59;24.42
77737;BME280;66903;59.926;30.404;2023-10-31T19:09:27;99958.06;;;27.60;24.25
77737;BME280;66903;59.926;30.404;2023-10-31T19:14:38;99954.34;;;27.60;24.17
77737;BME280;66903;59.926;30.404;2023-10-31T19:19:49;99923.63;;;27.60;24.34
77737;BME280;66903;59.926;30.404;2023-10-31T19:25:01;99898.16;;;27.79;24.65
77737;BME280;66903;59.926;30.404;2023-10-31T19:30:12;99861.13;;;27.66;24.61
77737;BME280;66903;59.926;30.404;2023-10-31T19:35:25;99845.13;;;27.65;24.60
77737;BME280;66903;59.926;30.404;2023-10-31T19:40:36;99833.97;;;27.63;24.46
77737;BME280;66903;59.926;30.404;2023-10-31T19:45:48;99831.09;;;27.63;24.76
77737;BME280;66903;59.926;30.404;2023-10-31T19:50:59;99811.00;;;27.63;24.85
77737;BME280;66903;59.926;30.404;2023-10-31T19:56:20;99815.22;;;27.66;24.69
77737;BME280;66903;59.926;30.404;2023-10-31T20:01:31;99784.88;;;27.65;24.61
77737;BME280;66903;59.926;30.404;2023-10-31T20:06:42;99738.97;;;27.65;24.40
77737;BME280;66903;59.926;30.404;2023-10-31T20:11:52;99732.84;;;27.66;24.94
77737;BME280;66903;59.926;30.404;2023-10-31T20:17:05;99715.63;;;27.66;24.93
77737;BME280;66903;59.926;30.404;2023-10-31T20:22:16;99721.38;;;27.66;24.55
77737;BME280;66903;59.926;30.404;2023-10-31T20:27:27;99716.47;;;27.67;24.68
77737;BME280;66903;59.926;30.404;2023-10-31T20:32:38;99710.38;;;27.68;24.43
77737;BME280;66903;59.926;30.404;2023-10-31T20:37:49;99710.72;;;27.67;25.01
77737;BME280;66903;59.926;30.404;2023-10-31T20:43:00;99697.72;;;27.69;24.79
77737;BME280;66903;59.926;30.404;2023-10-31T20:48:11;99674.75;;;27.69;24.94
77737;BME280;66903;59.926;30.404;2023-10-31T20:53:22;99673.53;;;27.70;24.60
77737;BME280;66903;59.926;30.404;2023-10-31T20:58:34;99668.66;;;27.71;24.92
77737;BME280;66903;59.926;30.404;2023-10-31T21:03:45;99638.28;;;27.70;24.88
77737;BME280;66903;59.926;30.404;2023-10-31T21:08:55;99628.47;;;27.71;24.65
77737;BME280;66903;59.926;30.404;2023-10-31T21:14:06;99631.34;;;27.71;25.17
77737;BME280;66903;59.926;30.404;2023-10-31T21:19:18;99633.84;;;27.72;25.21
77737;BME280;66903;59.926;30.404;2023-10-31T21:24:29;99618.69;;;27.72;24.93
77737;BME280;66903;59.926;30.404;2023-10-31T21:29:40;99606.84;;;27.73;24.83
77737;BME280;66903;59.926;30.404;2023-10-31T21:34:51;99593.00;;;27.75;25.09
77737;BME280;66903;59.926;30.404;2023-10-31T21:40:04;99581.97;;;27.77;24.90
77737;BME280;66903;59.926;30.404;2023-10-31T21:45:15;99580.78;;;27.78;24.72
77737;BME280;66903;59.926;30.404;2023-10-31T21:50:26;99578.75;;;27.79;25.28
77737;BME280;66903;59.926;30.404;2023-10-31T21:55:37;99547.63;;;27.81;25.12
77737;BME280;66903;59.926;30.404;2023-10-31T22:00:48;99534.13;;;27.81;25.30
77737;BME280;66903;59.926;30.404;2023-10-31T22:05:59;99531.75;;;27.83;24.96
77737;BME280;66903;59.926;30.404;2023-10-31T22:11:09;99510.00;;;27.82;25.27
77737;BME280;66903;59.926;30.404;2023-10-31T22:16:20;99516.19;;;27.84;25.19
77737;BME280;66903;59.926;30.404;2023-10-31T22:21:31;99510.13;;;27.86;25.23
77737;BME280;66903;59.926;30.404;2023-10-31T22:26:42;99505.19;;;27.86;24.84
77737;BME280;66903;59.926;30.404;2023-10-31T22:31:53;99503.16;;;27.87;25.22
77737;BME280;66903;59.926;30.404;2023-10-31T22:37:03;99509.38;;;27.89;25.43
77737;BME280;66903;59.926;30.404;2023-10-31T22:42:15;99491.31;;;27.88;24.94
77737;BME280;66903;59.926;30.404;2023-10-31T22:47:26;99479.84;;;27.88;25.25
77737;BME280;66903;59.926;30.404;2023-10-31T22:52:36;99476.59;;;27.90;24.94
77737;BME280;66903;59.926;30.404;2023-10-31T22:57:47;99463.94;;;27.91;24.93
77737;BME280;66903;59.926;30.404;2023-10-31T23:02:59;99454.16;;;27.92;24.99
77737;BME280;66903;59.926;30.404;2023-10-31T23:08:11;99439.78;;;27.92;24.86
77737;BME280;66903;59.926;30.404;2023-10-31T23:13:22;99427.94;;;27.93;25.38
77737;BME280;66903;59.926;30.404;2023-10-31T23:18:33;99417.31;;;27.94;25.34
77737;BME280;66903;59.926;30.404;2023-10-31T23:23:44;99401.75;;;27.95;25.46
77737;BME280;66903;59.926;30.404;2023-10-31T23:28:55;99403.44;;;27.96;25.08
77737;BME280;66903;59.926;30.404;2023-10-31T23:34:08;99400.19;;;27.97;25.06
77737;BME280;66903;59.926;30.404;2023-10-31T23:39:19;99409.66;;;27.98;25.28
77737;BME280;66903;59.926;30.404;2023-10-31T23:44:29;99403.91;;;27.98;25.24
77737;BME280;66903;59.926;30.404;2023-10-31T23:49:40;99394.44;;;27.97;25.16
77737;BME280;66903;59.926;30.404;2023-10-31T23:54:51;99387.50;;;27.98;25.60
